sensor_id;sensor_type;location;lat;lon;timestamp;P1;durP1;ratioP1;P2;durP2;ratioP2
53879;SDS011;39791;53.184;5.486;2022-09-25T00:01:22;6.40;;;1.40;;
53879;SDS011;39791;53.184;5.486;2022-09-25T00:03:47;6.47;;;1.38;;
53879;SDS011;39791;53.184;5.486;2022-09-25T00:06:14;12.63;;;1.58;;
53879;SDS011;39791;53.184;5.486;2022-09-25T00:08:44;12.25;;;1.70;;
53879;SDS011;39791;53.184;5.486;2022-09-25T00:11:20;8.23;;;1.40;;
53879;SDS011;39791;53.184;5.486;2022-09-25T00:13:55;15.82;;;1.83;;
53879;SDS011;39791;53.184;5.486;2022-09-25T00:16:22;9.70;;;1.60;;
53879;SDS011;39791;53.184;5.486;2022-09-25T00:18:50;5.63;;;1.20;;
53879;SDS011;39791;53.184;5.486;2022-09-25T00:21:34;9.85;;;1.38;;
53879;SDS011;39791;53.184;5.486;2022-09-25T00:24:02;11.40;;;1.45;;
53879;SDS011;39791;53.184;5.486;2022-09-25T00:26:31;7.55;;;1.70;;
53879;SDS011;39791;53.184;5.486;2022-09-25T00:28:58;9.27;;;1.70;;
53879;SDS011;39791;53.184;5.486;2022-09-25T00:31:27;6.07;;;1.50;;
53879;SDS011;39791;53.184;5.486;2022-09-25T00:33:55;5.88;;;1.35;;
53879;SDS011;39791;53.184;5.486;2022-09-25T00:36:22;15.40;;;1.55;;
53879;SDS011;39791;53.184;5.486;2022-09-25T00:38:48;12.68;;;1.63;;
53879;SDS011;39791;53.184;5.486;2022-09-25T00:41:15;7.63;;;1.55;;
53879;SDS011;39791;53.184;5.486;2022-09-25T00:43:46;11.50;;;1.77;;
53879;SDS011;39791;53.184;5.486;2022-09-25T00:49:13;8.25;;;1.50;;
53879;SDS011;39791;53.184;5.486;2022-09-25T00:51:45;7.28;;;1.50;;
53879;SDS011;39791;53.184;5.486;2022-09-25T00:54:27;6.85;;;1.77;;
53879;SDS011;39791;53.184;5.486;2022-09-25T00:56:59;5.38;;;1.58;;
53879;SDS011;39791;53.184;5.486;2022-09-25T00:59:29;11.63;;;1.88;;
53879;SDS011;39791;53.184;5.486;2022-09-25T01:02:00;9.77;;;1.65;;
53879;SDS011;39791;53.184;5.486;2022-09-25T01:04:26;9.07;;;1.42;;
53879;SDS011;39791;53.184;5.486;2022-09-25T01:06:54;8.88;;;1.55;;
53879;SDS011;39791;53.184;5.486;2022-09-25T01:09:20;5.78;;;1.42;;
53879;SDS011;39791;53.184;5.486;2022-09-25T01:11:46;5.10;;;1.27;;
53879;SDS011;39791;53.184;5.486;2022-09-25T01:14:12;3.72;;;1.40;;
53879;SDS011;39791;53.184;5.486;2022-09-25T01:22:26;7.70;;;1.38;;
53879;SDS011;39791;53.184;5.486;2022-09-25T01:25:10;6.20;;;1.50;;
53879;SDS011;39791;53.184;5.486;2022-09-25T01:30:51;7.38;;;1.08;;
53879;SDS011;39791;53.184;5.486;2022-09-25T01:33:23;8.80;;;1.63;;
53879;SDS011;39791;53.184;5.486;2022-09-25T01:35:59;5.72;;;1.02;;
53879;SDS011;39791;53.184;5.486;2022-09-25T01:43:55;9.83;;;1.77;;
53879;SDS011;39791;53.184;5.486;2022-09-25T01:46:29;12.30;;;1.85;;
53879;SDS011;39791;53.184;5.486;2022-09-25T01:49:05;7.85;;;1.33;;
53879;SDS011;39791;53.184;5.486;2022-09-25T01:51:51;6.57;;;1.80;;
53879;SDS011;39791;53.184;5.486;2022-09-25T01:54:23;12.00;;;1.98;;
53879;SDS011;39791;53.184;5.486;2022-09-25T01:56:54;7.47;;;1.58;;
53879;SDS011;39791;53.184;5.486;2022-09-25T02:02:30;5.53;;;1.55;;
53879;SDS011;39791;53.184;5.486;2022-09-25T02:05:08;8.18;;;1.77;;
53879;SDS011;39791;53.184;5.486;2022-09-25T02:07:41;7.25;;;1.55;;
53879;SDS011;39791;53.184;5.486;2022-09-25T02:10:14;6.38;;;1.38;;
53879;SDS011;39791;53.184;5.486;2022-09-25T02:12:49;5.85;;;1.60;;
53879;SDS011;39791;53.184;5.486;2022-09-25T02:15:20;9.20;;;1.52;;
53879;SDS011;39791;53.184;5.486;2022-09-25T02:17:56;6.25;;;1.45;;
53879;SDS011;39791;53.184;5.486;2022-09-25T02:20:47;11.13;;;2.30;;
53879;SDS011;39791;53.184;5.486;2022-09-25T02:24:08;5.28;;;1.85;;
53879;SDS011;39791;53.184;5.486;2022-09-25T02:26:21;9.80;;;1.50;;
53879;SDS011;39791;53.184;5.486;2022-09-25T02:28:53;8.18;;;1.50;;
53879;SDS011;39791;53.184;5.486;2022-09-25T02:31:20;20.60;;;1.90;;
53879;SDS011;39791;53.184;5.486;2022-09-25T02:33:52;8.75;;;1.48;;
53879;SDS011;39791;53.184;5.486;2022-09-25T02:36:19;11.52;;;1.55;;
53879;SDS011;39791;53.184;5.486;2022-09-25T02:38:47;4.97;;;1.25;;
53879;SDS011;39791;53.184;5.486;2022-09-25T02:46:38;11.95;;;1.50;;
53879;SDS011;39791;53.184;5.486;2022-09-25T02:49:19;4.88;;;1.27;;
53879;SDS011;39791;53.184;5.486;2022-09-25T02:54:50;7.47;;;1.40;;
53879;SDS011;39791;53.184;5.486;2022-09-25T02:57:28;11.10;;;1.90;;
53879;SDS011;39791;53.184;5.486;2022-09-25T03:00:12;8.27;;;1.83;;
53879;SDS011;39791;53.184;5.486;2022-09-25T03:02:39;12.50;;;1.98;;
53879;SDS011;39791;53.184;5.486;2022-09-25T03:05:07;13.88;;;1.75;;
53879;SDS011;39791;53.184;5.486;2022-09-25T03:07:36;15.13;;;2.22;;
53879;SDS011;39791;53.184;5.486;2022-09-25T03:10:21;12.23;;;2.20;;
53879;SDS011;39791;53.184;5.486;2022-09-25T03:12:47;17.23;;;2.13;;
53879;SDS011;39791;53.184;5.486;2022-09-25T03:15:13;10.40;;;1.52;;
53879;SDS011;39791;53.184;5.486;2022-09-25T03:17:39;12.75;;;1.60;;
53879;SDS011;39791;53.184;5.486;2022-09-25T03:20:05;11.68;;;1.85;;
53879;SDS011;39791;53.184;5.486;2022-09-25T03:22:31;10.85;;;1.75;;
53879;SDS011;39791;53.184;5.486;2022-09-25T03:24:57;10.43;;;1.80;;
53879;SDS011;39791;53.184;5.486;2022-09-25T03:27:22;12.10;;;1.77;;
53879;SDS011;39791;53.184;5.486;2022-09-25T03:29:52;11.13;;;2.65;;
53879;SDS011;39791;53.184;5.486;2022-09-25T03:32:18;12.60;;;1.42;;
53879;SDS011;39791;53.184;5.486;2022-09-25T03:34:43;7.18;;;1.42;;
53879;SDS011;39791;53.184;5.486;2022-09-25T03:37:09;8.70;;;2.10;;
53879;SDS011;39791;53.184;5.486;2022-09-25T03:39:34;5.93;;;1.30;;
53879;SDS011;39791;53.184;5.486;2022-09-25T03:42:00;8.23;;;1.90;;
53879;SDS011;39791;53.184;5.486;2022-09-25T03:44:25;11.27;;;1.55;;
53879;SDS011;39791;53.184;5.486;2022-09-25T03:46:51;10.65;;;1.60;;
53879;SDS011;39791;53.184;5.486;2022-09-25T03:49:16;7.75;;;1.70;;
53879;SDS011;39791;53.184;5.486;2022-09-25T03:51:42;9.48;;;1.58;;
53879;SDS011;39791;53.184;5.486;2022-09-25T03:54:07;8.57;;;1.73;;
53879;SDS011;39791;53.184;5.486;2022-09-25T03:56:33;5.07;;;1.48;;
53879;SDS011;39791;53.184;5.486;2022-09-25T03:58:59;8.18;;;1.58;;
53879;SDS011;39791;53.184;5.486;2022-09-25T04:01:25;9.88;;;1.88;;
53879;SDS011;39791;53.184;5.486;2022-09-25T04:03:51;12.93;;;2.47;;
53879;SDS011;39791;53.184;5.486;2022-09-25T04:06:18;7.70;;;1.83;;
53879;SDS011;39791;53.184;5.486;2022-09-25T04:08:47;8.75;;;1.80;;
53879;SDS011;39791;53.184;5.486;2022-09-25T04:11:14;13.48;;;2.17;;
53879;SDS011;39791;53.184;5.486;2022-09-25T04:13:40;7.50;;;1.75;;
53879;SDS011;39791;53.184;5.486;2022-09-25T04:16:07;9.40;;;1.80;;
53879;SDS011;39791;53.184;5.486;2022-09-25T04:18:33;12.27;;;2.22;;
53879;SDS011;39791;53.184;5.486;2022-09-25T04:21:02;7.53;;;1.70;;
53879;SDS011;39791;53.184;5.486;2022-09-25T04:23:29;7.28;;;1.70;;
53879;SDS011;39791;53.184;5.486;2022-09-25T04:25:56;12.68;;;2.08;;
53879;SDS011;39791;53.184;5.486;2022-09-25T04:28:22;7.13;;;2.00;;
53879;SDS011;39791;53.184;5.486;2022-09-25T04:30:48;8.30;;;2.35;;
53879;SDS011;39791;53.184;5.486;2022-09-25T04:33:14;8.65;;;2.25;;
53879;SDS011;39791;53.184;5.486;2022-09-25T04:35:59;12.50;;;1.88;;
53879;SDS011;39791;53.184;5.486;2022-09-25T04:38:25;9.57;;;2.10;;
53879;SDS011;39791;53.184;5.486;2022-09-25T04:40:51;6.93;;;2.13;;
53879;SDS011;39791;53.184;5.486;2022-09-25T04:43:16;6.72;;;1.85;;
53879;SDS011;39791;53.184;5.486;2022-09-25T04:45:42;8.13;;;1.83;;
53879;SDS011;39791;53.184;5.486;2022-09-25T04:48:08;10.07;;;2.00;;
53879;SDS011;39791;53.184;5.486;2022-09-25T04:50:33;5.72;;;1.70;;
53879;SDS011;39791;53.184;5.486;2022-09-25T04:52:59;8.93;;;2.00;;
53879;SDS011;39791;53.184;5.486;2022-09-25T04:55:28;10.25;;;1.90;;
53879;SDS011;39791;53.184;5.486;2022-09-25T04:57:59;7.90;;;2.00;;
53879;SDS011;39791;53.184;5.486;2022-09-25T05:00:26;8.10;;;1.98;;
53879;SDS011;39791;53.184;5.486;2022-09-25T05:02:53;7.10;;;1.98;;
53879;SDS011;39791;53.184;5.486;2022-09-25T05:05:19;4.93;;;1.80;;
53879;SDS011;39791;53.184;5.486;2022-09-25T05:07:51;8.32;;;2.08;;
53879;SDS011;39791;53.184;5.486;2022-09-25T05:10:21;12.55;;;2.15;;
53879;SDS011;39791;53.184;5.486;2022-09-25T05:12:55;12.65;;;2.40;;
53879;SDS011;39791;53.184;5.486;2022-09-25T05:15:22;12.13;;;2.63;;
53879;SDS011;39791;53.184;5.486;2022-09-25T05:17:48;23.30;;;2.70;;
53879;SDS011;39791;53.184;5.486;2022-09-25T05:20:13;9.27;;;2.50;;
53879;SDS011;39791;53.184;5.486;2022-09-25T05:22:41;11.35;;;2.47;;
53879;SDS011;39791;53.184;5.486;2022-09-25T05:25:06;12.70;;;2.47;;
53879;SDS011;39791;53.184;5.486;2022-09-25T05:27:33;9.82;;;2.40;;
53879;SDS011;39791;53.184;5.486;2022-09-25T05:29:58;16.05;;;2.80;;
53879;SDS011;39791;53.184;5.486;2022-09-25T05:32:24;9.23;;;2.40;;
53879;SDS011;39791;53.184;5.486;2022-09-25T05:34:50;9.70;;;2.17;;
53879;SDS011;39791;53.184;5.486;2022-09-25T05:37:16;7.18;;;2.30;;
53879;SDS011;39791;53.184;5.486;2022-09-25T05:39:41;8.52;;;2.60;;
53879;SDS011;39791;53.184;5.486;2022-09-25T05:42:07;12.90;;;2.40;;
53879;SDS011;39791;53.184;5.486;2022-09-25T05:44:33;8.98;;;2.58;;
53879;SDS011;39791;53.184;5.486;2022-09-25T05:46:58;7.32;;;2.03;;
53879;SDS011;39791;53.184;5.486;2022-09-25T05:49:24;8.02;;;2.17;;
53879;SDS011;39791;53.184;5.486;2022-09-25T05:51:49;7.45;;;2.10;;
53879;SDS011;39791;53.184;5.486;2022-09-25T05:54:15;2.80;;;1.90;;
53879;SDS011;39791;53.184;5.486;2022-09-25T05:56:40;8.43;;;2.13;;
53879;SDS011;39791;53.184;5.486;2022-09-25T05:59:06;5.15;;;2.10;;
53879;SDS011;39791;53.184;5.486;2022-09-25T06:01:31;4.00;;;1.85;;
53879;SDS011;39791;53.184;5.486;2022-09-25T06:03:57;6.40;;;2.33;;
53879;SDS011;39791;53.184;5.486;2022-09-25T06:06:22;6.75;;;1.90;;
53879;SDS011;39791;53.184;5.486;2022-09-25T06:08:48;7.65;;;2.10;;
53879;SDS011;39791;53.184;5.486;2022-09-25T06:11:14;5.75;;;2.20;;
53879;SDS011;39791;53.184;5.486;2022-09-25T06:13:39;6.47;;;2.90;;
53879;SDS011;39791;53.184;5.486;2022-09-25T06:16:13;6.07;;;2.40;;
53879;SDS011;39791;53.184;5.486;2022-09-25T06:18:43;8.00;;;2.33;;
53879;SDS011;39791;53.184;5.486;2022-09-25T06:21:12;4.88;;;2.17;;
53879;SDS011;39791;53.184;5.486;2022-09-25T06:23:38;10.25;;;3.40;;
53879;SDS011;39791;53.184;5.486;2022-09-25T06:26:05;10.07;;;2.55;;
53879;SDS011;39791;53.184;5.486;2022-09-25T06:28:31;3.53;;;2.20;;
53879;SDS011;39791;53.184;5.486;2022-09-25T06:31:03;10.02;;;2.60;;
53879;SDS011;39791;53.184;5.486;2022-09-25T06:33:29;6.75;;;2.42;;
53879;SDS011;39791;53.184;5.486;2022-09-25T06:35:55;12.55;;;2.50;;
53879;SDS011;39791;53.184;5.486;2022-09-25T06:38:21;5.70;;;2.50;;
53879;SDS011;39791;53.184;5.486;2022-09-25T06:40:46;6.93;;;2.65;;
53879;SDS011;39791;53.184;5.486;2022-09-25T06:43:14;10.77;;;2.20;;
53879;SDS011;39791;53.184;5.486;2022-09-25T06:45:41;7.20;;;2.15;;
53879;SDS011;39791;53.184;5.486;2022-09-25T06:48:11;9.85;;;2.22;;
53879;SDS011;39791;53.184;5.486;2022-09-25T06:50:45;7.20;;;2.17;;
53879;SDS011;39791;53.184;5.486;2022-09-25T06:53:13;8.88;;;2.28;;
53879;SDS011;39791;53.184;5.486;2022-09-25T06:55:40;10.75;;;2.58;;
53879;SDS011;39791;53.184;5.486;2022-09-25T06:58:06;5.95;;;2.20;;
53879;SDS011;39791;53.184;5.486;2022-09-25T07:00:34;8.38;;;1.73;;
53879;SDS011;39791;53.184;5.486;2022-09-25T07:03:00;7.07;;;1.73;;
53879;SDS011;39791;53.184;5.486;2022-09-25T07:05:45;11.07;;;1.90;;
53879;SDS011;39791;53.184;5.486;2022-09-25T07:08:12;9.73;;;1.77;;
53879;SDS011;39791;53.184;5.486;2022-09-25T07:10:50;9.80;;;1.70;;
53879;SDS011;39791;53.184;5.486;2022-09-25T07:13:17;12.52;;;1.92;;
53879;SDS011;39791;53.184;5.486;2022-09-25T07:15:51;7.22;;;1.90;;
53879;SDS011;39791;53.184;5.486;2022-09-25T07:18:20;7.15;;;1.92;;
53879;SDS011;39791;53.184;5.486;2022-09-25T07:20:47;11.32;;;2.67;;
53879;SDS011;39791;53.184;5.486;2022-09-25T07:23:13;10.77;;;1.73;;
53879;SDS011;39791;53.184;5.486;2022-09-25T07:25:40;10.27;;;1.77;;
53879;SDS011;39791;53.184;5.486;2022-09-25T07:28:07;13.90;;;1.55;;
53879;SDS011;39791;53.184;5.486;2022-09-25T07:30:33;5.00;;;1.40;;
53879;SDS011;39791;53.184;5.486;2022-09-25T07:32:59;8.40;;;1.67;;
53879;SDS011;39791;53.184;5.486;2022-09-25T07:35:25;7.30;;;1.60;;
53879;SDS011;39791;53.184;5.486;2022-09-25T07:37:54;3.40;;;1.30;;
53879;SDS011;39791;53.184;5.486;2022-09-25T07:40:20;7.18;;;1.48;;
53879;SDS011;39791;53.184;5.486;2022-09-25T07:42:45;7.40;;;1.90;;
53879;SDS011;39791;53.184;5.486;2022-09-25T07:45:11;5.82;;;1.10;;
53879;SDS011;39791;53.184;5.486;2022-09-25T07:47:37;5.05;;;1.50;;
53879;SDS011;39791;53.184;5.486;2022-09-25T07:50:02;6.18;;;1.48;;
53879;SDS011;39791;53.184;5.486;2022-09-25T07:52:28;7.38;;;1.40;;
53879;SDS011;39791;53.184;5.486;2022-09-25T07:54:53;9.38;;;1.50;;
53879;SDS011;39791;53.184;5.486;2022-09-25T07:57:19;9.27;;;1.40;;
53879;SDS011;39791;53.184;5.486;2022-09-25T07:59:48;7.50;;;1.50;;
53879;SDS011;39791;53.184;5.486;2022-09-25T08:02:13;5.00;;;1.15;;
53879;SDS011;39791;53.184;5.486;2022-09-25T08:04:39;6.28;;;1.30;;
53879;SDS011;39791;53.184;5.486;2022-09-25T08:07:05;4.57;;;1.10;;
53879;SDS011;39791;53.184;5.486;2022-09-25T08:09:30;6.38;;;1.20;;
53879;SDS011;39791;53.184;5.486;2022-09-25T08:11:56;5.65;;;1.30;;
53879;SDS011;39791;53.184;5.486;2022-09-25T08:14:21;4.88;;;1.52;;
53879;SDS011;39791;53.184;5.486;2022-09-25T08:16:47;5.35;;;1.27;;
53879;SDS011;39791;53.184;5.486;2022-09-25T08:19:13;9.13;;;1.30;;
53879;SDS011;39791;53.184;5.486;2022-09-25T08:21:42;4.13;;;1.00;;
53879;SDS011;39791;53.184;5.486;2022-09-25T08:24:08;4.30;;;1.15;;
53879;SDS011;39791;53.184;5.486;2022-09-25T08:26:34;3.92;;;1.20;;
53879;SDS011;39791;53.184;5.486;2022-09-25T08:29:00;12.50;;;1.33;;
53879;SDS011;39791;53.184;5.486;2022-09-25T08:31:27;5.28;;;1.10;;
53879;SDS011;39791;53.184;5.486;2022-09-25T08:33:52;4.00;;;1.05;;
53879;SDS011;39791;53.184;5.486;2022-09-25T08:36:18;7.03;;;1.15;;
53879;SDS011;39791;53.184;5.486;2022-09-25T08:38:45;3.83;;;0.73;;
53879;SDS011;39791;53.184;5.486;2022-09-25T08:41:15;3.40;;;0.93;;
53879;SDS011;39791;53.184;5.486;2022-09-25T08:44:08;2.80;;;1.20;;
53879;SDS011;39791;53.184;5.486;2022-09-25T08:50:08;4.25;;;1.10;;
53879;SDS011;39791;53.184;5.486;2022-09-25T08:52:40;5.72;;;1.10;;
53879;SDS011;39791;53.184;5.486;2022-09-25T08:55:18;4.38;;;1.10;;
53879;SDS011;39791;53.184;5.486;2022-09-25T08:57:46;6.88;;;0.90;;
53879;SDS011;39791;53.184;5.486;2022-09-25T09:00:18;5.18;;;1.23;;
53879;SDS011;39791;53.184;5.486;2022-09-25T09:02:46;7.10;;;1.50;;
53879;SDS011;39791;53.184;5.486;2022-09-25T09:05:28;8.93;;;1.50;;
53879;SDS011;39791;53.184;5.486;2022-09-25T09:07:58;7.40;;;1.10;;
53879;SDS011;39791;53.184;5.486;2022-09-25T09:10:40;8.98;;;1.17;;
53879;SDS011;39791;53.184;5.486;2022-09-25T09:15:56;6.28;;;1.40;;
53879;SDS011;39791;53.184;5.486;2022-09-25T09:18:28;6.35;;;1.25;;
53879;SDS011;39791;53.184;5.486;2022-09-25T09:20:57;8.02;;;1.35;;
53879;SDS011;39791;53.184;5.486;2022-09-25T09:23:32;5.47;;;1.08;;
53879;SDS011;39791;53.184;5.486;2022-09-25T09:26:04;4.65;;;1.35;;
53879;SDS011;39791;53.184;5.486;2022-09-25T09:28:49;5.35;;;1.17;;
53879;SDS011;39791;53.184;5.486;2022-09-25T09:31:28;5.03;;;1.20;;
53879;SDS011;39791;53.184;5.486;2022-09-25T09:34:06;3.83;;;0.90;;
53879;SDS011;39791;53.184;5.486;2022-09-25T09:36:57;8.32;;;1.20;;
53879;SDS011;39791;53.184;5.486;2022-09-25T09:39:40;5.80;;;1.20;;
53879;SDS011;39791;53.184;5.486;2022-09-25T09:45:18;4.97;;;1.45;;
53879;SDS011;39791;53.184;5.486;2022-09-25T09:48:00;9.35;;;1.30;;
53879;SDS011;39791;53.184;5.486;2022-09-25T09:50:40;6.32;;;1.33;;
53879;SDS011;39791;53.184;5.486;2022-09-25T09:53:21;5.25;;;1.10;;
53879;SDS011;39791;53.184;5.486;2022-09-25T09:55:48;10.30;;;1.52;;
53879;SDS011;39791;53.184;5.486;2022-09-25T09:58:51;5.55;;;1.05;;
53879;SDS011;39791;53.184;5.486;2022-09-25T10:01:23;4.45;;;1.20;;
53879;SDS011;39791;53.184;5.486;2022-09-25T10:04:03;7.88;;;1.00;;
53879;SDS011;39791;53.184;5.486;2022-09-25T10:06:35;4.18;;;1.20;;
53879;SDS011;39791;53.184;5.486;2022-09-25T10:09:02;10.05;;;1.27;;
53879;SDS011;39791;53.184;5.486;2022-09-25T10:11:28;7.68;;;1.30;;
53879;SDS011;39791;53.184;5.486;2022-09-25T10:13:56;5.85;;;1.48;;
53879;SDS011;39791;53.184;5.486;2022-09-25T10:16:24;4.95;;;1.33;;
53879;SDS011;39791;53.184;5.486;2022-09-25T10:18:52;5.07;;;1.63;;
53879;SDS011;39791;53.184;5.486;2022-09-25T10:21:30;6.82;;;1.42;;
53879;SDS011;39791;53.184;5.486;2022-09-25T10:24:02;5.47;;;1.25;;
53879;SDS011;39791;53.184;5.486;2022-09-25T10:26:32;8.10;;;1.67;;
53879;SDS011;39791;53.184;5.486;2022-09-25T10:29:03;7.28;;;1.58;;
53879;SDS011;39791;53.184;5.486;2022-09-25T10:31:33;11.05;;;1.65;;
53879;SDS011;39791;53.184;5.486;2022-09-25T10:36:34;11.98;;;1.70;;
53879;SDS011;39791;53.184;5.486;2022-09-25T10:39:03;7.80;;;1.73;;
53879;SDS011;39791;53.184;5.486;2022-09-25T10:41:39;9.75;;;1.70;;
53879;SDS011;39791;53.184;5.486;2022-09-25T10:44:18;7.72;;;1.55;;
53879;SDS011;39791;53.184;5.486;2022-09-25T10:47:33;10.27;;;1.63;;
53879;SDS011;39791;53.184;5.486;2022-09-25T10:50:13;5.80;;;1.42;;
53879;SDS011;39791;53.184;5.486;2022-09-25T10:52:49;8.32;;;1.20;;
53879;SDS011;39791;53.184;5.486;2022-09-25T10:55:27;10.15;;;1.58;;
53879;SDS011;39791;53.184;5.486;2022-09-25T10:58:04;7.43;;;1.40;;
53879;SDS011;39791;53.184;5.486;2022-09-25T11:00:53;10.20;;;1.45;;
53879;SDS011;39791;53.184;5.486;2022-09-25T11:03:24;10.48;;;1.42;;
53879;SDS011;39791;53.184;5.486;2022-09-25T11:05:54;3.85;;;1.30;;
53879;SDS011;39791;53.184;5.486;2022-09-25T11:08:22;3.35;;;0.90;;
53879;SDS011;39791;53.184;5.486;2022-09-25T11:10:53;3.78;;;0.88;;
53879;SDS011;39791;53.184;5.486;2022-09-25T11:13:25;4.85;;;0.80;;
53879;SDS011;39791;53.184;5.486;2022-09-25T11:15:55;3.63;;;1.20;;
53879;SDS011;39791;53.184;5.486;2022-09-25T11:18:37;5.78;;;1.05;;
53879;SDS011;39791;53.184;5.486;2022-09-25T11:21:31;3.53;;;1.08;;
53879;SDS011;39791;53.184;5.486;2022-09-25T11:26:59;7.28;;;1.17;;
53879;SDS011;39791;53.184;5.486;2022-09-25T11:29:36;5.22;;;1.02;;
53879;SDS011;39791;53.184;5.486;2022-09-25T11:32:23;9.13;;;1.27;;
53879;SDS011;39791;53.184;5.486;2022-09-25T11:35:05;8.15;;;1.10;;
53879;SDS011;39791;53.184;5.486;2022-09-25T11:37:42;6.93;;;1.38;;
53879;SDS011;39791;53.184;5.486;2022-09-25T11:43:23;5.50;;;1.50;;
53879;SDS011;39791;53.184;5.486;2022-09-25T11:51:28;5.72;;;1.23;;
53879;SDS011;39791;53.184;5.486;2022-09-25T11:57:09;5.63;;;1.00;;
53879;SDS011;39791;53.184;5.486;2022-09-25T12:02:46;5.65;;;1.20;;
53879;SDS011;39791;53.184;5.486;2022-09-25T12:21:49;10.40;;;1.27;;
53879;SDS011;39791;53.184;5.486;2022-09-25T12:24:44;6.95;;;1.45;;
53879;SDS011;39791;53.184;5.486;2022-09-25T12:27:42;6.72;;;1.25;;
53879;SDS011;39791;53.184;5.486;2022-09-25T12:30:23;9.82;;;1.25;;
53879;SDS011;39791;53.184;5.486;2022-09-25T12:38:33;3.47;;;1.00;;
53879;SDS011;39791;53.184;5.486;2022-09-25T12:43:54;5.72;;;1.10;;
53879;SDS011;39791;53.184;5.486;2022-09-25T12:49:11;3.05;;;0.82;;
53879;SDS011;39791;53.184;5.486;2022-09-25T12:51:45;12.48;;;1.50;;
53879;SDS011;39791;53.184;5.486;2022-09-25T12:57:01;5.47;;;0.93;;
53879;SDS011;39791;53.184;5.486;2022-09-25T12:59:31;4.65;;;0.80;;
53879;SDS011;39791;53.184;5.486;2022-09-25T13:02:13;5.70;;;1.00;;
53879;SDS011;39791;53.184;5.486;2022-09-25T13:10:23;7.53;;;1.20;;
53879;SDS011;39791;53.184;5.486;2022-09-25T13:12:49;5.10;;;1.20;;
53879;SDS011;39791;53.184;5.486;2022-09-25T13:15:23;4.88;;;1.00;;
53879;SDS011;39791;53.184;5.486;2022-09-25T13:17:52;4.85;;;0.93;;
53879;SDS011;39791;53.184;5.486;2022-09-25T13:22:51;4.03;;;0.80;;
53879;SDS011;39791;53.184;5.486;2022-09-25T13:25:26;5.57;;;1.00;;
53879;SDS011;39791;53.184;5.486;2022-09-25T13:27:52;3.35;;;0.80;;
53879;SDS011;39791;53.184;5.486;2022-09-25T13:30:19;5.05;;;0.90;;
53879;SDS011;39791;53.184;5.486;2022-09-25T13:32:50;3.33;;;0.90;;
53879;SDS011;39791;53.184;5.486;2022-09-25T13:35:18;3.92;;;0.90;;
53879;SDS011;39791;53.184;5.486;2022-09-25T13:37:45;3.53;;;0.90;;
53879;SDS011;39791;53.184;5.486;2022-09-25T13:40:14;6.72;;;1.38;;
53879;SDS011;39791;53.184;5.486;2022-09-25T13:43:19;3.63;;;1.08;;
53879;SDS011;39791;53.184;5.486;2022-09-25T13:48:50;6.03;;;1.30;;
53879;SDS011;39791;53.184;5.486;2022-09-25T13:54:01;7.18;;;1.27;;
53879;SDS011;39791;53.184;5.486;2022-09-25T13:56:48;3.05;;;0.90;;
53879;SDS011;39791;53.184;5.486;2022-09-25T14:01:44;8.38;;;1.45;;
53879;SDS011;39791;53.184;5.486;2022-09-25T14:06:38;7.47;;;1.33;;
53879;SDS011;39791;53.184;5.486;2022-09-25T14:09:13;5.03;;;1.20;;
53879;SDS011;39791;53.184;5.486;2022-09-25T14:11:42;10.57;;;1.17;;
53879;SDS011;39791;53.184;5.486;2022-09-25T14:14:25;3.78;;;0.85;;
53879;SDS011;39791;53.184;5.486;2022-09-25T14:16:57;5.18;;;1.08;;
53879;SDS011;39791;53.184;5.486;2022-09-25T14:19:25;5.78;;;1.10;;
53879;SDS011;39791;53.184;5.486;2022-09-25T14:21:54;3.13;;;0.73;;
53879;SDS011;39791;53.184;5.486;2022-09-25T14:24:23;3.45;;;0.90;;
53879;SDS011;39791;53.184;5.486;2022-09-25T14:26:53;4.07;;;0.90;;
53879;SDS011;39791;53.184;5.486;2022-09-25T14:29:25;5.68;;;1.15;;
53879;SDS011;39791;53.184;5.486;2022-09-25T14:35:22;5.60;;;1.08;;
53879;SDS011;39791;53.184;5.486;2022-09-25T14:46:33;3.67;;;0.75;;
53879;SDS011;39791;53.184;5.486;2022-09-25T14:49:02;3.35;;;0.93;;
53879;SDS011;39791;53.184;5.486;2022-09-25T14:51:40;0.98;;;0.80;;
53879;SDS011;39791;53.184;5.486;2022-09-25T14:54:18;1.80;;;0.70;;
53879;SDS011;39791;53.184;5.486;2022-09-25T14:56:48;5.45;;;1.13;;
53879;SDS011;39791;53.184;5.486;2022-09-25T14:59:21;5.53;;;1.60;;
53879;SDS011;39791;53.184;5.486;2022-09-25T15:02:01;5.88;;;1.05;;
53879;SDS011;39791;53.184;5.486;2022-09-25T15:04:29;2.70;;;0.75;;
53879;SDS011;39791;53.184;5.486;2022-09-25T15:06:58;5.13;;;0.90;;
53879;SDS011;39791;53.184;5.486;2022-09-25T15:09:39;2.38;;;0.65;;
53879;SDS011;39791;53.184;5.486;2022-09-25T15:12:31;1.25;;;0.60;;
53879;SDS011;39791;53.184;5.486;2022-09-25T15:15:10;1.65;;;0.52;;
53879;SDS011;39791;53.184;5.486;2022-09-25T15:17:47;1.10;;;0.70;;
53879;SDS011;39791;53.184;5.486;2022-09-25T15:20:20;3.60;;;0.93;;
53879;SDS011;39791;53.184;5.486;2022-09-25T15:22:54;1.30;;;0.70;;
53879;SDS011;39791;53.184;5.486;2022-09-25T15:25:44;3.97;;;0.80;;
53879;SDS011;39791;53.184;5.486;2022-09-25T15:28:16;2.15;;;0.60;;
53879;SDS011;39791;53.184;5.486;2022-09-25T15:30:44;2.63;;;0.70;;
53879;SDS011;39791;53.184;5.486;2022-09-25T15:33:21;2.13;;;0.73;;
53879;SDS011;39791;53.184;5.486;2022-09-25T15:35:57;2.22;;;0.70;;
53879;SDS011;39791;53.184;5.486;2022-09-25T15:38:34;1.85;;;0.70;;
53879;SDS011;39791;53.184;5.486;2022-09-25T15:41:01;2.13;;;0.70;;
53879;SDS011;39791;53.184;5.486;2022-09-25T15:43:30;1.52;;;0.60;;
53879;SDS011;39791;53.184;5.486;2022-09-25T15:46:43;1.27;;;0.77;;
53879;SDS011;39791;53.184;5.486;2022-09-25T15:48:56;4.93;;;1.02;;
53879;SDS011;39791;53.184;5.486;2022-09-25T15:51:23;3.53;;;0.80;;
53879;SDS011;39791;53.184;5.486;2022-09-25T15:53:55;2.28;;;0.63;;
53879;SDS011;39791;53.184;5.486;2022-09-25T15:56:24;0.85;;;0.65;;
53879;SDS011;39791;53.184;5.486;2022-09-25T16:01:26;4.93;;;1.10;;
53879;SDS011;39791;53.184;5.486;2022-09-25T16:04:17;2.13;;;0.80;;
53879;SDS011;39791;53.184;5.486;2022-09-25T16:07:22;3.03;;;0.90;;
53879;SDS011;39791;53.184;5.486;2022-09-25T16:10:02;4.22;;;0.73;;
53879;SDS011;39791;53.184;5.486;2022-09-25T16:12:41;6.38;;;1.08;;
53879;SDS011;39791;53.184;5.486;2022-09-25T16:17:56;4.40;;;1.00;;
53879;SDS011;39791;53.184;5.486;2022-09-25T16:20:31;2.80;;;0.98;;
53879;SDS011;39791;53.184;5.486;2022-09-25T16:22:59;3.63;;;1.00;;
53879;SDS011;39791;53.184;5.486;2022-09-25T16:25:29;6.57;;;1.20;;
53879;SDS011;39791;53.184;5.486;2022-09-25T16:30:31;2.45;;;0.75;;
53879;SDS011;39791;53.184;5.486;2022-09-25T16:33:06;6.10;;;1.65;;
53879;SDS011;39791;53.184;5.486;2022-09-25T16:35:49;1.52;;;0.80;;
53879;SDS011;39791;53.184;5.486;2022-09-25T16:38:24;6.47;;;1.10;;
53879;SDS011;39791;53.184;5.486;2022-09-25T16:43:33;6.05;;;1.05;;
53879;SDS011;39791;53.184;5.486;2022-09-25T16:46:01;5.57;;;1.38;;
53879;SDS011;39791;53.184;5.486;2022-09-25T16:51:21;4.97;;;0.80;;
53879;SDS011;39791;53.184;5.486;2022-09-25T16:53:50;5.82;;;1.00;;
53879;SDS011;39791;53.184;5.486;2022-09-25T16:56:23;4.18;;;0.93;;
53879;SDS011;39791;53.184;5.486;2022-09-25T16:58:51;4.70;;;0.95;;
53879;SDS011;39791;53.184;5.486;2022-09-25T17:01:17;3.05;;;1.08;;
53879;SDS011;39791;53.184;5.486;2022-09-25T17:03:44;2.97;;;0.93;;
53879;SDS011;39791;53.184;5.486;2022-09-25T17:06:17;7.03;;;1.10;;
53879;SDS011;39791;53.184;5.486;2022-09-25T17:08:43;4.35;;;0.98;;
53879;SDS011;39791;53.184;5.486;2022-09-25T17:11:09;4.28;;;1.17;;
53879;SDS011;39791;53.184;5.486;2022-09-25T17:13:35;6.38;;;1.10;;
53879;SDS011;39791;53.184;5.486;2022-09-25T17:16:01;5.72;;;1.00;;
53879;SDS011;39791;53.184;5.486;2022-09-25T17:18:27;3.95;;;1.20;;
53879;SDS011;39791;53.184;5.486;2022-09-25T17:20:53;3.67;;;0.90;;
53879;SDS011;39791;53.184;5.486;2022-09-25T17:23:21;3.40;;;1.08;;